createdAt,value
2018-02-18T06:18:25.637Z,19.67
2018-02-18T06:20:57.523Z,21.03
2018-02-18T06:23:30.175Z,20.43
2018-02-18T06:26:02.059Z,20.50
2018-02-18T06:28:34.707Z,20.43
2018-02-18T06:31:06.595Z,21.67
2018-02-18T06:33:39.231Z,22.13
2018-02-18T06:36:11.115Z,21.03
2018-02-18T06:38:43.322Z,20.77
2018-02-18T06:41:15.212Z,22.53
2018-02-18T06:43:47.079Z,22.40
2018-02-18T06:46:18.975Z,20.97
2018-02-18T06:48:51.619Z,20.90
2018-02-18T06:51:23.507Z,22.40
2018-02-18T06:53:55.702Z,21.70
2018-02-18T06:56:27.871Z,21.63
2018-02-18T06:58:59.742Z,20.50
2018-02-18T07:01:31.636Z,22.27
2018-02-18T07:04:03.543Z,22.87
2018-02-18T07:06:36.203Z,22.47
2018-02-18T07:09:08.079Z,22.83
2018-02-18T07:11:41.083Z,22.97
2018-02-18T07:14:13.512Z,21.00
2018-02-18T07:16:45.399Z,22.23
2018-02-18T07:19:17.287Z,20.97
2018-02-18T07:21:49.431Z,22.07
2018-02-18T07:24:21.314Z,22.30
2018-02-18T07:26:53.206Z,21.83
2018-02-18T07:29:25.319Z,21.67
2018-02-18T07:31:57.487Z,22.43
2018-02-18T07:34:29.651Z,21.97
2018-02-18T07:37:01.567Z,21.73
2018-02-18T07:39:33.438Z,22.03
2018-02-18T07:42:05.331Z,21.77
2018-02-18T07:44:37.202Z,22.03
2018-02-18T07:47:09.359Z,21.87
2018-02-18T07:49:41.223Z,20.47
2018-02-18T07:52:13.392Z,21.97
2018-02-18T07:54:45.551Z,21.93
2018-02-18T07:57:17.437Z,25.67
2018-02-18T07:59:49.308Z,22.17
2018-02-18T08:02:21.435Z,24.70
2018-02-18T08:04:53.339Z,21.93
2018-02-18T08:07:25.237Z,21.77
2018-02-18T08:09:57.875Z,21.70
2018-02-18T08:12:29.758Z,23.30
2018-02-18T08:15:01.963Z,22.93
2018-02-18T08:17:33.851Z,21.40
2018-02-18T08:20:05.988Z,21.00
2018-02-18T08:22:37.872Z,21.27
2018-02-18T08:25:09.738Z,21.80
2018-02-18T08:27:41.656Z,21.70
2018-02-18T08:30:14.298Z,22.37
2018-02-18T08:32:46.179Z,22.47
2018-02-18T08:35:18.065Z,21.53
2018-02-18T08:37:49.950Z,22.20
2018-02-18T08:40:21.828Z,22.00
2018-02-18T08:42:53.746Z,22.67
2018-02-18T08:45:26.375Z,21.40
2018-02-18T08:47:58.264Z,22.40
2018-02-18T08:50:30.955Z,22.73
2018-02-18T08:53:02.804Z,22.13
2018-02-18T08:55:35.439Z,23.63
2018-02-18T08:58:07.328Z,22.47
2018-02-18T09:00:39.201Z,23.03
2018-02-18T09:03:12.109Z,23.30
2018-02-18T09:05:43.988Z,21.70
2018-02-18T09:08:15.875Z,23.23
2018-02-18T09:10:47.991Z,22.93
2018-02-18T09:13:19.880Z,22.40
2018-02-18T09:15:51.754Z,23.57
2018-02-18T09:18:23.675Z,21.83
2018-02-18T09:20:55.844Z,23.00
2018-02-18T09:23:27.952Z,24.63
2018-02-18T09:25:59.847Z,22.53
2018-02-18T09:28:32.486Z,22.60
2018-02-18T09:31:04.363Z,23.63
2018-02-18T09:33:36.261Z,22.73
2018-02-18T09:36:08.136Z,22.27
2018-02-18T09:38:40.023Z,22.43
2018-02-18T09:41:11.900Z,22.60
2018-02-18T09:43:43.788Z,23.33
2018-02-18T09:46:16.423Z,21.83
2018-02-18T09:48:48.306Z,23.53
2018-02-18T09:51:20.186Z,22.67
2018-02-18T09:53:52.831Z,21.80
2018-02-18T09:56:24.727Z,23.17
2018-02-18T09:58:57.623Z,23.17
2018-02-18T10:01:29.496Z,23.53
2018-02-18T10:04:01.458Z,22.77
2018-02-18T10:06:33.614Z,21.27
2018-02-18T10:09:05.508Z,22.00
2018-02-18T10:11:37.384Z,22.73
2018-02-18T10:14:09.503Z,23.17
2018-02-18T10:16:41.372Z,22.73
2018-02-18T10:19:13.259Z,23.00
2018-02-18T10:21:45.140Z,21.73
2018-02-18T10:24:17.856Z,22.47
2018-02-18T10:26:49.739Z,21.57
2018-02-18T10:29:21.654Z,22.07
2018-02-18T10:31:53.909Z,22.20
2018-02-18T10:34:25.747Z,21.33
2018-02-18T10:36:57.623Z,22.33
2018-02-18T10:39:29.863Z,21.07
2018-02-18T10:42:01.739Z,21.03
2018-02-18T10:44:33.656Z,22.30
2018-02-18T10:47:05.519Z,22.30
2018-02-18T10:49:37.679Z,21.70
2018-02-18T10:52:09.551Z,20.83
2018-02-18T10:54:41.446Z,20.97
2018-02-18T10:57:13.330Z,22.43
2018-02-18T10:59:45.223Z,21.23
2018-02-18T11:02:17.808Z,20.20
2018-02-18T11:04:49.691Z,22.87
2018-02-18T11:07:21.564Z,20.97
2018-02-18T11:09:53.457Z,20.70
2018-02-18T11:12:25.327Z,20.33
2018-02-18T11:14:57.971Z,20.23
2018-02-18T11:17:29.848Z,21.87
2018-02-18T11:20:01.727Z,20.53
2018-02-18T11:22:34.623Z,20.07
2018-02-18T11:25:06.511Z,20.73
2018-02-18T11:27:38.387Z,20.40
2018-02-18T11:30:10.296Z,21.00
2018-02-18T11:32:43.183Z,19.90
2018-02-18T11:35:15.079Z,19.53
2018-02-18T11:37:47.020Z,20.40
2018-02-18T11:40:18.971Z,21.70
2018-02-18T11:42:50.844Z,20.90
2018-02-18T11:45:22.771Z,19.23
2018-02-18T11:47:55.411Z,18.30
2018-02-18T11:50:27.296Z,17.60
2018-02-18T11:52:59.203Z,16.73
2018-02-18T11:55:31.097Z,18.07
2018-02-18T11:58:02.976Z,17.40
2018-02-18T12:00:34.911Z,17.20
2018-02-18T12:03:06.792Z,16.97
2018-02-18T12:05:38.685Z,16.10
2018-02-18T12:08:10.571Z,16.43
2018-02-18T12:10:42.463Z,15.30
2018-02-18T12:13:14.335Z,14.90
2018-02-18T12:15:46.207Z,15.47
2018-02-18T12:18:18.851Z,14.80
2018-02-18T12:20:51.071Z,13.50
2018-02-18T12:23:22.956Z,13.97
2018-02-18T12:25:55.099Z,13.47
2018-02-18T12:28:26.984Z,12.80
2018-02-18T12:30:59.124Z,12.40
2018-02-18T12:33:30.997Z,12.40
2018-02-18T12:36:02.892Z,11.87
2018-02-18T12:38:34.759Z,11.03
2018-02-18T12:41:06.651Z,10.53
2018-02-18T12:43:39.550Z,11.17
2018-02-18T12:46:11.451Z,12.33
2018-02-18T12:48:43.324Z,11.53
2018-02-18T12:51:15.224Z,10.83
2018-02-18T12:53:48.111Z,10.73
2018-02-18T12:56:20.005Z,10.70
2018-02-18T12:58:51.879Z,10.53
2018-02-18T13:01:23.779Z,11.00
2018-02-18T13:03:56.420Z,10.93
2018-02-18T13:06:28.535Z,11.47
2018-02-18T13:09:00.711Z,12.13
2018-02-18T13:11:32.600Z,12.90
2018-02-18T13:14:06.240Z,13.33
2018-02-18T13:16:38.899Z,10.77
2018-02-18T13:19:11.013Z,12.93
2018-02-18T13:21:43.178Z,12.13
2018-02-18T13:24:15.048Z,12.77
2018-02-18T13:26:46.948Z,11.90
2018-02-18T13:29:18.828Z,11.50
2018-02-18T13:31:51.058Z,10.93
2018-02-18T13:34:22.932Z,10.87
2018-02-18T13:36:54.815Z,10.90
2018-02-18T13:39:26.687Z,9.93
2018-02-18T13:41:59.343Z,10.80
2018-02-18T13:44:31.234Z,11.63
2018-02-18T13:47:03.922Z,10.93
2018-02-18T13:49:35.799Z,13.40
2018-02-18T13:52:07.688Z,16.80
2018-02-18T13:54:39.572Z,11.40
2018-02-18T13:57:11.462Z,11.00
2018-02-18T13:59:44.094Z,10.40
2018-02-18T14:02:16.004Z,9.77
2018-02-18T14:04:48.186Z,10.10
2018-02-18T14:07:20.060Z,10.70
2018-02-18T14:09:51.931Z,10.60
2018-02-18T14:12:23.839Z,10.23
2018-02-18T14:14:56.479Z,10.47
2018-02-18T14:17:28.369Z,11.17
2018-02-18T14:20:01.006Z,9.67
2018-02-18T14:22:32.898Z,10.03
2018-02-18T14:25:05.539Z,10.40
2018-02-18T14:27:37.427Z,10.07
2018-02-18T14:30:09.300Z,12.37
2018-02-18T14:32:41.959Z,10.70
2018-02-18T14:35:13.840Z,10.17
2018-02-18T14:37:46.495Z,10.47
2018-02-18T14:40:18.362Z,9.47
2018-02-18T14:43:02.223Z,9.73
2018-02-18T14:45:46.881Z,10.47
2018-02-18T14:48:31.560Z,10.70
2018-02-18T14:51:16.174Z,9.93
2018-02-18T14:53:59.983Z,10.73
2018-02-18T14:56:43.639Z,10.17
2018-02-18T14:59:15.863Z,10.60
2018-02-18T15:01:47.727Z,10.63
2018-02-18T15:04:19.608Z,11.83
2018-02-18T15:06:51.483Z,10.77
2018-02-18T15:09:23.612Z,11.47
2018-02-18T15:11:55.493Z,12.33
2018-02-18T15:14:27.391Z,13.53
2018-02-18T15:16:59.263Z,12.07
2018-02-18T15:19:31.921Z,11.73
2018-02-18T15:22:03.795Z,11.53
2018-02-18T15:24:35.683Z,11.90
2018-02-18T15:27:07.852Z,11.50
2018-02-18T15:29:39.740Z,10.77
2018-02-18T15:32:11.646Z,11.10
2018-02-18T15:34:44.562Z,10.00
2018-02-18T15:37:16.723Z,9.33
2018-02-18T15:39:48.616Z,9.70
2018-02-18T15:42:20.492Z,9.53
2018-02-18T15:44:52.380Z,9.70
2018-02-18T15:47:25.017Z,10.70
2018-02-18T15:49:56.901Z,11.67
2018-02-18T15:52:28.780Z,12.03
2018-02-18T15:55:00.667Z,10.73
2018-02-18T15:57:32.552Z,11.50
2018-02-18T16:00:04.440Z,11.93
2018-02-18T16:02:36.315Z,11.10
2018-02-18T16:05:08.208Z,12.70
2018-02-18T16:07:40.080Z,11.83
2018-02-18T16:10:12.019Z,12.43
2018-02-18T16:12:44.655Z,16.50
2018-02-18T16:15:16.570Z,15.93
2018-02-18T16:17:48.448Z,13.97
2018-02-18T16:20:20.336Z,15.00
2018-02-18T16:22:52.207Z,15.17
2018-02-18T16:25:24.093Z,15.47
2018-02-18T16:27:58.012Z,16.40
2018-02-18T16:30:29.907Z,14.57
2018-02-18T16:33:01.776Z,16.67
2018-02-18T16:35:33.683Z,16.03
2018-02-18T16:38:06.316Z,16.80
2018-02-18T16:40:38.195Z,16.47
2018-02-18T16:43:10.846Z,17.50
2018-02-18T16:45:42.728Z,15.90
2018-02-18T16:48:15.299Z,16.60
2018-02-18T16:50:47.200Z,19.00
2018-02-18T16:53:19.840Z,18.37
2018-02-18T16:55:51.732Z,18.90
2018-02-18T16:58:24.372Z,17.90
2018-02-18T17:00:56.486Z,17.37
2018-02-18T17:03:28.602Z,18.13
2018-02-18T17:06:00.530Z,17.43
2018-02-18T17:08:32.681Z,19.80
2018-02-18T17:11:04.579Z,17.20
2018-02-18T17:13:36.456Z,19.70
2018-02-18T17:16:08.336Z,19.27
2018-02-18T17:18:40.975Z,17.17
2018-02-18T17:21:12.935Z,17.43
2018-02-18T17:23:44.807Z,18.33
2018-02-18T17:26:17.484Z,17.43
2018-02-18T17:28:49.444Z,17.83
2018-02-18T17:31:21.332Z,18.10
2018-02-18T17:33:53.200Z,18.80
2018-02-18T17:36:25.852Z,16.80
2018-02-18T17:38:57.739Z,17.90
2018-02-18T17:41:30.639Z,18.03
2018-02-18T17:44:02.831Z,17.80
2018-02-18T17:46:34.715Z,18.80
2018-02-18T17:49:06.616Z,18.83
2018-02-18T17:51:39.285Z,18.67
2018-02-18T17:54:11.151Z,18.67
2018-02-18T17:56:43.334Z,19.10
2018-02-18T17:59:15.204Z,18.77
2018-02-18T18:01:47.094Z,19.53
2018-02-18T18:04:18.974Z,20.03
2018-02-18T18:06:50.851Z,19.67
2018-02-18T18:09:23.499Z,20.63
2018-02-18T18:11:55.382Z,21.43
2018-02-18T18:14:27.264Z,23.60
2018-02-18T18:16:59.167Z,20.03
2018-02-18T18:19:31.056Z,22.03
2018-02-18T18:22:03.000Z,20.43
2018-02-18T18:24:34.887Z,19.30
2018-02-18T18:27:06.771Z,20.60
2018-02-18T18:29:38.647Z,18.23
2018-02-18T18:32:10.538Z,20.30
2018-02-18T18:34:43.534Z,21.47
2018-02-18T18:37:15.444Z,21.63
2018-02-18T18:39:47.443Z,19.83
2018-02-18T18:42:19.571Z,21.37
2018-02-18T18:44:51.440Z,21.43
2018-02-18T18:47:24.187Z,21.10
2018-02-18T18:49:56.835Z,21.23
2018-02-18T18:52:28.775Z,21.03
2018-02-18T18:55:01.378Z,21.20
2018-02-18T18:57:33.314Z,21.20
2018-02-18T19:00:05.200Z,21.30
2018-02-18T19:02:37.117Z,22.37
2018-02-18T19:05:08.995Z,22.33
2018-02-18T19:07:40.886Z,22.53
2018-02-18T19:10:12.782Z,20.77
2018-02-18T19:12:44.955Z,22.80
2018-02-18T19:15:17.155Z,21.80
2018-02-18T19:17:49.043Z,23.60
2018-02-18T19:20:21.020Z,20.80
2018-02-18T19:22:53.701Z,21.47
2018-02-18T19:25:25.695Z,21.07
2018-02-18T19:27:57.600Z,21.30
2018-02-18T19:30:29.477Z,22.20
2018-02-18T19:33:01.679Z,21.80
2018-02-18T19:35:33.560Z,21.40
2018-02-18T19:38:05.442Z,21.27
2018-02-18T19:40:37.374Z,22.43
2018-02-18T19:43:09.255Z,21.00
2018-02-18T19:45:41.135Z,21.13
2018-02-18T19:48:13.016Z,21.13
2018-02-18T19:50:45.011Z,20.13
2018-02-18T19:53:16.906Z,21.37
2018-02-18T19:55:48.807Z,21.03
2018-02-18T19:58:21.503Z,21.20
2018-02-18T20:00:53.377Z,21.37
2018-02-18T20:03:25.268Z,21.53
2018-02-18T20:05:57.138Z,21.13
2018-02-18T20:08:29.027Z,21.80
2018-02-18T20:11:01.724Z,21.50
2018-02-18T20:13:33.891Z,21.33
2018-02-18T20:16:06.062Z,22.97
2018-02-18T20:18:38.012Z,22.30
2018-02-18T20:21:09.915Z,22.70
2018-02-18T20:23:41.805Z,22.23
2018-02-18T20:26:13.689Z,23.80
